createdAt,value
2019-04-20T00:01:31.953Z,103460.13
2019-04-20T00:04:01.030Z,103457.12
2019-04-20T00:06:38.154Z,103456.58
2019-04-20T00:09:08.828Z,103458.68
2019-04-20T00:11:45.866Z,103459.50
2019-04-20T00:14:13.776Z,103456.75
2019-04-20T00:16:39.936Z,103452.46
2019-04-20T00:19:10.671Z,103453.16
2019-04-20T00:21:49.568Z,103450.23
2019-04-20T00:24:42.654Z,103451.02
2019-04-20T00:27:37.051Z,103449.06
2019-04-20T00:30:04.262Z,103452.59
2019-04-20T00:32:35.961Z,103452.33
2019-04-20T00:34:51.157Z,103448.80
2019-04-20T00:37:21.193Z,103448.80
2019-04-20T00:39:50.878Z,103456.98
2019-04-20T00:42:32.563Z,103457.42
2019-04-20T00:45:00.613Z,103458.06
2019-04-20T00:47:39.761Z,103454.81
2019-04-20T00:50:09.215Z,103448.00
2019-04-20T00:52:41.385Z,103448.00
2019-04-20T00:55:00.079Z,103445.38
2019-04-20T00:57:41.881Z,103444.88
2019-04-20T01:00:21.496Z,103444.34
2019-04-20T01:02:45.495Z,103438.12
2019-04-20T01:05:27.617Z,103438.12
2019-04-20T01:08:00.533Z,103434.14
2019-04-20T01:10:37.114Z,103437.64
2019-04-20T01:13:11.288Z,103434.95
2019-04-20T01:15:46.207Z,103438.49
2019-04-20T01:18:04.088Z,103434.05
2019-04-20T01:20:33.420Z,103425.44
2019-04-20T01:23:07.600Z,103436.18
2019-04-20T01:25:39.334Z,103429.83
2019-04-20T01:28:24.560Z,103429.83
2019-04-20T01:30:44.633Z,103433.50
2019-04-20T01:33:25.864Z,103433.50
2019-04-20T01:35:57.737Z,103436.48
2019-04-20T01:38:30.476Z,103429.09
2019-04-20T01:40:44.753Z,103427.78
2019-04-20T01:43:14.575Z,103433.86
2019-04-20T01:45:45.745Z,103430.33
2019-04-20T01:48:22.024Z,103432.13
2019-04-20T01:50:57.384Z,103432.08
2019-04-20T01:53:41.159Z,103427.51
2019-04-20T01:56:12.458Z,103429.31
2019-04-20T01:59:02.750Z,103427.13
2019-04-20T02:01:40.193Z,103429.27
2019-04-20T02:04:23.788Z,103429.27
2019-04-20T02:06:50.356Z,103429.56
2019-04-20T02:09:21.156Z,103425.22
2019-04-20T02:11:50.815Z,103425.67
2019-04-20T02:14:29.555Z,103425.22
2019-04-20T02:17:05.394Z,103430.00
2019-04-20T02:19:39.281Z,103430.00
2019-04-20T02:22:09.930Z,103438.91
2019-04-20T02:24:29.905Z,103433.00
2019-04-20T02:26:59.848Z,103433.67
2019-04-20T02:29:50.983Z,103436.52
2019-04-20T02:32:47.673Z,103436.86
2019-04-20T02:35:29.932Z,103440.45
2019-04-20T02:40:39.680Z,103434.95
2019-04-20T02:43:09.565Z,103438.39
2019-04-20T02:45:49.070Z,103436.03
2019-04-20T02:48:10.029Z,103439.71
2019-04-20T02:50:38.660Z,103439.56
2019-04-20T02:53:17.349Z,103437.29
2019-04-20T02:55:41.930Z,103439.77
2019-04-20T02:58:10.811Z,103439.47
2019-04-20T03:00:36.168Z,103431.75
2019-04-20T03:02:57.113Z,103436.64
2019-04-20T03:05:29.864Z,103431.08
2019-04-20T03:08:08.993Z,103431.08
2019-04-20T03:10:46.406Z,103431.75
2019-04-20T03:13:15.855Z,103432.09
2019-04-20T03:15:50.673Z,103423.72
2019-04-20T03:18:19.216Z,103428.71
2019-04-20T03:20:55.075Z,103421.65
2019-04-20T03:23:33.535Z,103425.78
2019-04-20T03:26:05.423Z,103414.17
2019-04-20T03:29:05.328Z,103414.17
2019-04-20T03:32:17.265Z,103419.22
2019-04-20T03:34:47.536Z,103417.65
2019-04-20T03:37:05.050Z,103417.65
2019-04-20T03:39:21.956Z,103434.55
2019-04-20T03:41:43.217Z,103424.66
2019-04-20T03:44:12.664Z,103426.27
2019-04-20T03:46:47.902Z,103424.80
2019-04-20T03:49:38.447Z,103414.97
2019-04-20T03:52:23.419Z,103426.46
2019-04-20T03:55:16.429Z,103424.30
2019-04-20T03:58:10.743Z,103416.78
2019-04-20T04:01:14.194Z,103420.36
2019-04-20T04:03:58.784Z,103421.88
2019-04-20T04:06:17.803Z,103421.72
2019-04-20T04:08:55.016Z,103421.72
2019-04-20T04:11:27.550Z,103432.92
2019-04-20T04:13:48.118Z,103421.72
2019-04-20T04:16:21.578Z,103411.11
2019-04-20T04:19:02.849Z,103411.11
2019-04-20T04:21:39.562Z,103420.75
2019-04-20T04:24:07.292Z,103420.75
2019-04-20T04:26:56.248Z,103425.38
2019-04-20T04:29:39.689Z,103425.38
2019-04-20T04:32:12.798Z,103423.92
2019-04-20T04:34:34.716Z,103426.20
2019-04-20T04:37:06.791Z,103421.64
2019-04-20T04:39:37.768Z,103427.39
2019-04-20T04:42:16.944Z,103432.12
2019-04-20T04:44:38.896Z,103439.03
2019-04-20T04:47:02.730Z,103439.03
2019-04-20T04:49:35.260Z,103436.34
2019-04-20T04:52:06.166Z,103434.31
2019-04-20T04:54:40.045Z,103438.31
2019-04-20T04:57:05.306Z,103438.31
2019-04-20T04:59:36.229Z,103438.31
2019-04-20T05:02:05.727Z,103442.34
2019-04-20T05:07:56.471Z,103444.48
2019-04-20T05:10:16.296Z,103439.94
2019-04-20T05:12:46.233Z,103439.94
2019-04-20T05:15:32.535Z,103436.81
2019-04-20T05:18:09.990Z,103438.80
2019-04-20T05:20:42.636Z,103440.44
2019-04-20T05:23:26.967Z,103437.53
2019-04-20T05:26:14.335Z,103440.22
2019-04-20T05:28:36.842Z,103440.19
2019-04-20T05:30:59.971Z,103440.19
2019-04-20T05:33:48.529Z,103439.84
2019-04-20T05:36:20.053Z,103441.15
2019-04-20T05:38:55.767Z,103441.25
2019-04-20T05:41:21.910Z,103444.30
2019-04-20T05:44:00.747Z,103444.30
2019-04-20T05:46:37.248Z,103442.70
2019-04-20T05:49:20.632Z,103436.11
2019-04-20T05:51:40.896Z,103439.03
2019-04-20T05:54:13.521Z,103439.03
2019-04-20T05:56:46.383Z,103438.09
2019-04-20T05:59:15.271Z,103438.09
2019-04-20T06:01:53.189Z,103437.40
2019-04-20T06:04:22.468Z,103440.32
2019-04-20T06:06:56.497Z,103442.54
2019-04-20T06:09:28.687Z,103442.54
2019-04-20T06:12:07.689Z,103437.55
2019-04-20T06:14:39.514Z,103433.41
2019-04-20T06:17:51.511Z,103430.11
2019-04-20T06:20:21.543Z,103424.65
2019-04-20T06:22:59.963Z,103415.86
2019-04-20T06:28:02.896Z,103425.88
2019-04-20T06:30:33.186Z,103423.50
2019-04-20T06:34:01.388Z,103425.51
2019-04-20T06:36:23.486Z,103418.58
2019-04-20T06:39:00.454Z,103423.69
2019-04-20T06:41:32.532Z,103423.34
2019-04-20T06:43:54.199Z,103423.34
2019-04-20T06:46:22.304Z,103423.43
2019-04-20T06:49:04.395Z,103411.29
2019-04-20T06:51:38.848Z,103407.62
2019-04-20T06:54:04.719Z,103415.69
2019-04-20T06:56:42.515Z,103416.05
2019-04-20T06:59:21.523Z,103413.52
2019-04-20T07:01:57.015Z,103405.27
2019-04-20T07:06:56.593Z,103414.04
2019-04-20T07:09:38.646Z,103411.79
2019-04-20T07:11:50.446Z,103412.13
2019-04-20T07:14:11.088Z,103409.02
2019-04-20T07:17:09.474Z,103416.13
2019-04-20T07:19:39.937Z,103416.13
2019-04-20T07:27:22.949Z,103403.14
2019-04-20T07:30:09.451Z,103410.30
2019-04-20T07:32:17.822Z,103405.94
2019-04-20T07:34:56.853Z,103405.92
2019-04-20T07:40:06.003Z,103397.87
2019-04-20T07:42:43.695Z,103397.88
2019-04-20T07:45:19.913Z,103397.88
2019-04-20T07:50:10.090Z,103397.70
2019-04-20T07:52:33.986Z,103394.11
2019-04-20T07:57:41.945Z,103394.82
2019-04-20T08:00:19.901Z,103397.30
2019-04-20T08:03:11.923Z,103390.58
2019-04-20T08:05:45.710Z,103390.47
2019-04-20T08:08:27.177Z,103392.55
2019-04-20T08:10:54.353Z,103394.31
2019-04-20T08:13:40.346Z,103386.59
2019-04-20T08:16:00.793Z,103384.19
2019-04-20T08:21:03.838Z,103366.45
2019-04-20T08:23:34.854Z,103359.38
2019-04-20T08:26:00.504Z,103361.80
2019-04-20T08:28:36.076Z,103353.05
2019-04-20T08:31:38.592Z,103343.33
2019-04-20T08:34:38.337Z,103353.00
2019-04-20T08:36:52.656Z,103355.48
2019-04-20T08:41:56.349Z,103352.89
2019-04-20T08:47:05.164Z,103339.54
2019-04-20T08:49:57.102Z,103339.06
2019-04-20T08:52:23.057Z,103336.45
2019-04-20T08:54:34.447Z,103332.08
2019-04-20T08:56:55.365Z,103327.81
2019-04-20T08:59:23.326Z,103324.37
2019-04-20T09:01:53.487Z,103317.32
2019-04-20T09:04:37.324Z,103318.39
2019-04-20T09:07:08.377Z,103317.21
2019-04-20T09:09:49.619Z,103318.63
2019-04-20T09:12:21.197Z,103321.32
2019-04-20T09:14:38.484Z,103317.94
2019-04-20T09:17:26.439Z,103314.50
2019-04-20T09:19:55.730Z,103303.98
2019-04-20T09:23:07.113Z,103305.64
2019-04-20T09:25:57.589Z,103309.31
2019-04-20T09:28:28.518Z,103302.25
2019-04-20T09:31:22.615Z,103302.31
2019-04-20T09:34:20.344Z,103290.77
2019-04-20T09:36:49.370Z,103300.36
2019-04-20T09:39:44.980Z,103296.73
2019-04-20T09:42:34.519Z,103294.97
2019-04-20T09:45:07.578Z,103298.53
2019-04-20T09:47:43.592Z,103287.17
2019-04-20T09:50:29.265Z,103280.09
2019-04-20T09:53:03.655Z,103274.79
2019-04-20T09:55:28.848Z,103274.37
2019-04-20T09:58:06.291Z,103275.69
2019-04-20T10:00:43.808Z,103268.12
2019-04-20T10:02:57.995Z,103272.12
2019-04-20T10:05:29.578Z,103271.19
2019-04-20T10:08:03.341Z,103269.38
2019-04-20T10:10:35.780Z,103270.25
2019-04-20T10:13:09.173Z,103262.67
2019-04-20T10:15:39.654Z,103264.05
2019-04-20T10:18:15.366Z,103267.98
2019-04-20T10:20:45.377Z,103110.91
2019-04-20T10:23:16.469Z,103166.07
2019-04-20T10:25:46.823Z,103256.95
2019-04-20T10:28:16.314Z,103256.05
2019-04-20T10:30:46.326Z,103255.19
2019-04-20T10:33:15.978Z,103256.10
2019-04-20T10:35:45.691Z,103255.18
2019-04-20T10:38:23.275Z,103244.50
2019-04-20T10:41:03.330Z,103250.73
2019-04-20T10:43:25.951Z,103244.06
2019-04-20T10:45:57.087Z,103239.18
2019-04-20T10:48:27.011Z,103238.73
2019-04-20T10:50:56.881Z,103238.75
2019-04-20T10:53:27.947Z,103229.81
2019-04-20T10:55:57.815Z,103234.29
2019-04-20T10:58:27.527Z,103221.41
2019-04-20T11:00:57.671Z,103222.28
2019-04-20T11:03:28.811Z,103214.26
2019-04-20T11:05:58.976Z,103216.05
2019-04-20T11:08:28.744Z,103215.16
2019-04-20T11:11:09.096Z,103219.61
2019-04-20T11:13:29.850Z,103214.28
2019-04-20T11:16:00.458Z,103217.80
2019-04-20T11:18:31.299Z,103216.04
2019-04-20T11:21:01.503Z,103211.58
2019-04-20T11:23:32.125Z,103210.70
2019-04-20T11:26:02.226Z,103204.90
2019-04-20T11:28:34.410Z,103207.12
2019-04-20T11:31:04.226Z,103208.00
2019-04-20T11:33:34.243Z,103204.91
2019-04-20T11:36:05.217Z,103203.98
2019-04-20T11:38:35.296Z,103204.41
2019-04-20T11:41:14.456Z,103202.19
2019-04-20T11:43:38.034Z,103202.14
2019-04-20T11:46:09.029Z,103202.61
2019-04-20T11:48:39.435Z,103200.81
2019-04-20T11:51:09.486Z,103204.31
2019-04-20T11:53:40.362Z,103207.03
2019-04-20T11:56:15.996Z,103204.36
2019-04-20T11:58:42.815Z,103204.36
2019-04-20T12:01:44.094Z,103200.77
2019-04-20T12:04:21.550Z,103206.09
2019-04-20T12:06:39.470Z,103193.55
2019-04-20T12:09:12.929Z,103198.02
2019-04-20T12:11:56.004Z,103191.76
2019-04-20T12:14:14.471Z,103189.19
2019-04-20T12:16:45.747Z,103192.84
2019-04-20T12:19:15.686Z,103191.07
2019-04-20T12:21:45.624Z,103193.72
2019-04-20T12:24:16.419Z,103184.88
2019-04-20T12:26:46.995Z,103186.64
2019-04-20T12:29:17.369Z,103181.74
2019-04-20T12:31:51.157Z,103191.09
2019-04-20T12:34:20.508Z,103191.11
2019-04-20T12:36:51.188Z,103186.13
2019-04-20T12:39:22.239Z,103177.64
2019-04-20T12:41:56.497Z,103176.86
2019-04-20T12:44:24.104Z,103176.89
2019-04-20T12:46:54.050Z,103175.08
2019-04-20T12:49:23.666Z,103169.77
2019-04-20T12:51:58.002Z,103177.75
2019-04-20T12:54:25.351Z,103168.00
2019-04-20T12:56:56.066Z,103168.39
2019-04-20T12:59:27.543Z,103166.63
2019-04-20T13:02:01.653Z,103161.75
2019-04-20T13:04:33.254Z,103158.21
2019-04-20T13:07:03.850Z,103153.31
2019-04-20T13:09:44.312Z,103149.77
2019-04-20T13:12:21.658Z,103150.62
2019-04-20T13:15:22.358Z,103146.56
2019-04-20T13:17:52.868Z,103151.94
2019-04-20T13:20:28.022Z,103150.22
2019-04-20T13:22:59.995Z,103153.75
2019-04-20T13:25:30.560Z,103145.31
2019-04-20T13:28:01.040Z,103152.89
2019-04-20T13:30:32.134Z,103147.98
2019-04-20T13:33:03.597Z,103146.64
2019-04-20T13:35:34.285Z,103147.56
2019-04-20T13:38:04.656Z,103145.79
2019-04-20T13:40:35.406Z,103136.00
2019-04-20T13:43:05.777Z,103134.66
2019-04-20T13:45:37.063Z,103127.56
2019-04-20T13:48:08.785Z,103129.77
2019-04-20T13:50:40.070Z,103135.13
2019-04-20T13:53:09.678Z,103139.55
2019-04-20T13:55:40.108Z,103143.12
2019-04-20T13:58:16.015Z,103134.23
2019-04-20T14:01:03.364Z,103130.67
2019-04-20T14:03:34.587Z,103132.90
2019-04-20T14:06:06.893Z,103128.88
2019-04-20T14:08:37.107Z,103119.55
2019-04-20T14:11:07.340Z,103130.23
2019-04-20T14:13:43.509Z,103126.23
2019-04-20T14:16:14.357Z,103121.78
2019-04-20T14:18:45.015Z,103123.09
2019-04-20T14:21:14.722Z,103120.78
2019-04-20T14:23:45.342Z,103115.92
2019-04-20T14:26:17.293Z,103116.80
2019-04-20T14:28:47.137Z,102965.16
2019-04-20T14:31:17.519Z,103124.26
2019-04-20T14:33:48.771Z,103118.51
2019-04-20T14:36:19.091Z,103112.32
2019-04-20T14:38:49.901Z,103114.56
2019-04-20T14:41:22.373Z,103111.09
2019-04-20T14:43:53.185Z,103112.45
2019-04-20T14:46:26.165Z,103104.90
2019-04-20T14:48:56.583Z,103114.66
2019-04-20T14:51:27.834Z,103100.91
2019-04-20T14:53:57.537Z,103109.16
2019-04-20T14:56:29.317Z,103102.06
2019-04-20T14:59:19.884Z,103096.77
2019-04-20T15:01:54.699Z,103091.91
2019-04-20T15:04:28.596Z,103096.33
2019-04-20T15:06:57.876Z,103093.20
2019-04-20T15:09:28.689Z,103095.02
2019-04-20T15:11:59.031Z,103090.13
2019-04-20T15:14:29.146Z,103092.34
2019-04-20T15:16:58.683Z,103088.80
2019-04-20T15:19:36.603Z,103091.92
2019-04-20T15:22:09.429Z,103092.33
2019-04-20T15:24:39.738Z,103087.89
2019-04-20T15:27:10.164Z,103083.45
2019-04-20T15:29:40.132Z,103074.09
2019-04-20T15:32:10.214Z,103075.48
2019-04-20T15:34:40.228Z,103076.32
2019-04-20T15:37:12.022Z,103069.68
2019-04-20T15:39:43.180Z,103067.51
2019-04-20T15:42:12.704Z,103063.02
2019-04-20T15:44:43.027Z,103064.78
2019-04-20T15:47:17.578Z,103059.48
2019-04-20T15:49:47.028Z,103058.58
2019-04-20T15:52:22.359Z,103046.59
2019-04-20T15:54:47.994Z,103050.98
2019-04-20T15:57:21.728Z,103054.95
2019-04-20T15:59:49.015Z,103054.98
2019-04-20T16:02:25.157Z,103038.99
2019-04-20T16:05:14.410Z,103035.37
2019-04-20T16:07:50.325Z,103027.86
2019-04-20T16:10:17.070Z,103024.77
2019-04-20T16:12:46.926Z,103020.33
2019-04-20T16:15:17.769Z,103020.31
2019-04-20T16:17:51.613Z,103015.87
2019-04-20T16:20:23.626Z,103021.98
2019-04-20T16:22:54.348Z,103019.33
2019-04-20T16:25:31.936Z,103029.97
2019-04-20T16:28:01.673Z,103016.20
2019-04-20T16:30:31.779Z,103030.37
2019-04-20T16:33:02.715Z,103025.88
2019-04-20T16:35:34.221Z,103020.95
2019-04-20T16:38:04.447Z,103025.41
2019-04-20T16:40:35.661Z,103016.52
2019-04-20T16:43:15.825Z,103023.55
2019-04-20T16:45:37.186Z,103016.45
2019-04-20T16:48:08.480Z,103023.55
2019-04-20T16:50:38.340Z,103019.09
2019-04-20T16:53:08.871Z,103011.08
2019-04-20T16:55:38.888Z,103014.66
2019-04-20T16:58:10.220Z,103013.64
2019-04-20T17:00:41.149Z,103019.81
2019-04-20T17:03:11.198Z,103017.09
2019-04-20T17:05:41.250Z,103015.30
2019-04-20T17:08:11.281Z,103020.61
2019-04-20T17:10:41.809Z,103018.83
2019-04-20T17:13:11.617Z,103011.59
2019-04-20T17:15:43.439Z,103009.80
2019-04-20T17:18:13.710Z,103010.27
2019-04-20T17:20:44.319Z,103011.56
2019-04-20T17:23:15.063Z,103005.28
2019-04-20T17:25:46.080Z,103004.86
2019-04-20T17:28:33.349Z,103007.94
2019-04-20T17:31:19.771Z,103002.13
2019-04-20T17:34:04.740Z,102999.44
2019-04-20T17:36:27.793Z,103002.45
2019-04-20T17:38:59.737Z,103003.36
2019-04-20T17:42:00.150Z,102998.05
2019-04-20T17:44:17.321Z,103000.70
2019-04-20T17:46:43.918Z,103001.59
2019-04-20T17:49:15.869Z,102998.94
2019-04-20T17:51:58.095Z,102997.51
2019-04-20T17:54:23.505Z,102995.28
2019-04-20T17:56:54.277Z,102992.66
2019-04-20T17:59:24.328Z,102994.38
2019-04-20T18:02:38.330Z,102993.52
2019-04-20T18:05:32.831Z,102986.42
2019-04-20T18:08:08.109Z,102981.07
2019-04-20T18:10:31.742Z,102981.93
2019-04-20T18:12:50.201Z,102982.72
2019-04-20T18:15:36.042Z,102980.92
2019-04-20T18:18:28.316Z,102964.53
2019-04-20T18:21:17.097Z,102969.33
2019-04-20T18:23:50.304Z,102967.91
2019-04-20T18:26:39.327Z,102965.56
2019-04-20T18:29:10.721Z,102970.39
2019-04-20T18:31:41.768Z,102964.53
2019-04-20T18:34:29.151Z,102961.89
2019-04-20T18:37:00.626Z,102963.30
2019-04-20T18:39:38.699Z,102963.13
2019-04-20T18:42:14.286Z,102966.11
2019-04-20T18:44:55.893Z,102959.99
2019-04-20T18:47:30.142Z,102964.40
2019-04-20T18:49:49.181Z,102958.24
2019-04-20T18:52:09.511Z,102955.55
2019-04-20T18:54:43.842Z,102956.78
2019-04-20T18:57:14.333Z,102962.84
2019-04-20T18:59:47.815Z,102954.45
2019-04-20T19:02:19.947Z,102953.13
2019-04-20T19:04:45.781Z,102949.95
2019-04-20T19:07:15.542Z,102950.70
2019-04-20T19:09:45.119Z,102951.50
2019-04-20T19:12:16.574Z,102949.80
2019-04-20T19:15:12.082Z,102945.45
2019-04-20T19:18:04.290Z,102947.25
2019-04-20T19:20:32.915Z,102951.55
2019-04-20T19:23:04.003Z,102945.34
2019-04-20T19:25:37.501Z,102942.17
2019-04-20T19:28:14.540Z,102941.53
2019-04-20T19:31:00.098Z,102937.02
2019-04-20T19:33:30.931Z,102937.34
2019-04-20T19:35:57.368Z,102933.66
2019-04-20T19:38:29.509Z,102930.37
2019-04-20T19:41:02.063Z,102927.62
2019-04-20T19:43:31.676Z,102930.26
2019-04-20T19:46:35.584Z,102923.93
2019-04-20T19:48:40.710Z,102931.56
2019-04-20T19:51:26.933Z,102925.64
2019-04-20T19:53:56.326Z,102921.98
2019-04-20T19:56:26.391Z,102920.03
2019-04-20T19:58:55.248Z,102916.41
2019-04-20T20:01:11.460Z,102912.41
2019-04-20T20:03:43.759Z,102910.49
2019-04-20T20:06:24.140Z,102909.70
2019-04-20T20:08:53.163Z,102910.69
2019-04-20T20:11:27.675Z,102912.03
2019-04-20T20:13:53.480Z,102912.70
2019-04-20T20:16:30.309Z,102917.55
2019-04-20T20:19:07.450Z,102917.98
2019-04-20T20:21:38.587Z,102914.50
2019-04-20T20:23:57.845Z,102906.50
2019-04-20T20:26:36.200Z,102906.80
2019-04-20T20:29:10.949Z,102913.08
2019-04-20T20:31:48.618Z,102901.84
2019-04-20T20:34:12.921Z,102907.44
2019-04-20T20:36:43.752Z,102910.84
2019-04-20T20:39:15.737Z,102910.80
2019-04-20T20:41:53.411Z,102907.16
2019-04-20T20:44:26.497Z,102898.27
2019-04-20T20:46:55.380Z,102899.09
2019-04-20T20:49:32.755Z,102901.52
2019-04-20T20:52:08.329Z,102902.92
2019-04-20T20:54:36.426Z,102896.70
2019-04-20T20:56:59.843Z,102895.00
2019-04-20T20:59:34.775Z,102898.97
2019-04-20T21:02:06.457Z,102900.36
2019-04-20T21:04:31.594Z,102894.67
2019-04-20T21:07:02.731Z,102894.69
2019-04-20T21:09:33.425Z,102892.32
2019-04-20T21:12:08.463Z,102898.33
2019-04-20T21:14:38.407Z,102895.11
2019-04-20T21:17:15.205Z,102890.15
2019-04-20T21:19:53.393Z,102710.20
2019-04-20T21:22:18.530Z,102892.14
2019-04-20T21:24:42.162Z,102880.10
2019-04-20T21:27:16.695Z,102881.48
2019-04-20T21:29:50.523Z,102875.75
2019-04-20T21:32:19.462Z,102871.80
2019-04-20T21:34:51.859Z,102876.41
2019-04-20T21:37:22.483Z,102880.09
2019-04-20T21:39:55.379Z,102867.43
2019-04-20T21:42:26.432Z,102872.70
2019-04-20T21:45:04.417Z,102864.13
2019-04-20T21:47:34.680Z,102866.08
2019-04-20T21:50:17.029Z,102867.84
2019-04-20T21:52:40.782Z,102868.50
2019-04-20T21:55:06.076Z,102871.59
2019-04-20T21:57:42.054Z,102869.45
2019-04-20T22:00:23.752Z,102862.47
2019-04-20T22:02:54.146Z,102859.04
2019-04-20T22:05:15.730Z,102863.08
2019-04-20T22:07:46.404Z,102853.45
2019-04-20T22:10:18.984Z,102852.08
2019-04-20T22:12:52.667Z,102864.56
2019-04-20T22:15:26.096Z,102864.56
2019-04-20T22:17:50.596Z,102854.09
2019-04-20T22:20:32.151Z,102852.61
2019-04-20T22:23:02.964Z,102856.38
2019-04-20T22:25:46.256Z,102864.07
2019-04-20T22:27:58.553Z,102854.83
2019-04-20T22:30:28.132Z,102862.73
2019-04-20T22:33:04.055Z,102861.09
2019-04-20T22:35:36.004Z,102866.98
2019-04-20T22:38:37.628Z,102859.73
2019-04-20T22:41:13.894Z,102859.16
2019-04-20T22:43:40.329Z,102854.02
2019-04-20T22:46:09.896Z,102850.55
2019-04-20T22:48:47.657Z,102844.27
2019-04-20T22:51:28.186Z,102837.89
2019-04-20T22:53:51.988Z,102839.31
2019-04-20T22:56:29.969Z,102839.55
2019-04-20T22:58:55.617Z,102832.75
2019-04-20T23:01:27.748Z,102829.03
2019-04-20T23:03:48.576Z,102836.20
2019-04-20T23:06:18.874Z,102824.20
2019-04-20T23:08:57.583Z,102822.46
2019-04-20T23:11:26.419Z,102817.33
2019-04-20T23:13:53.013Z,102814.55
2019-04-20T23:16:23.088Z,102804.84
2019-04-20T23:18:54.265Z,102799.36
2019-04-20T23:21:24.010Z,102803.14
2019-04-20T23:24:00.446Z,102799.96
2019-04-20T23:26:33.276Z,102797.64
2019-04-20T23:29:00.814Z,102791.35
2019-04-20T23:31:32.161Z,102789.55
2019-04-20T23:34:10.094Z,102791.15
2019-04-20T23:36:39.018Z,102785.79
2019-04-20T23:39:08.769Z,102783.95
2019-04-20T23:41:43.510Z,102787.00
2019-04-20T23:44:29.339Z,102789.05
2019-04-20T23:47:15.583Z,102784.17
2019-04-20T23:50:03.363Z,102779.02
2019-04-20T23:52:42.427Z,102779.02
2019-04-20T23:54:58.892Z,102781.52
2019-04-20T23:57:26.042Z,102765.56
2019-04-20T23:59:56.232Z,102766.97
